createdAt,value
2017-05-16T00:00:21.779Z,0
2017-05-16T00:01:02.352Z,0
2017-05-16T00:01:42.918Z,0
2017-05-16T00:02:23.489Z,0
2017-05-16T00:03:04.096Z,0
2017-05-16T00:03:44.677Z,0
2017-05-16T00:04:25.249Z,0
2017-05-16T00:05:05.855Z,0
2017-05-16T00:05:46.425Z,0
2017-05-16T00:06:27.007Z,0
2017-05-16T00:07:07.595Z,0
2017-05-16T00:07:48.162Z,0
2017-05-16T00:08:28.740Z,0
2017-05-16T00:09:09.375Z,0
2017-05-16T00:09:49.953Z,0
2017-05-16T00:10:30.549Z,0
2017-05-16T00:11:11.124Z,0
2017-05-16T00:11:51.714Z,0
2017-05-16T00:12:32.301Z,0
2017-05-16T00:13:12.897Z,0
2017-05-16T00:13:53.477Z,0
2017-05-16T00:14:34.077Z,0
2017-05-16T00:15:14.675Z,0
2017-05-16T00:15:55.249Z,0
2017-05-16T00:16:35.820Z,0
2017-05-16T00:17:16.436Z,0
2017-05-16T00:17:57.041Z,0
2017-05-16T00:18:37.615Z,0
2017-05-16T00:19:18.182Z,0
2017-05-16T00:19:58.768Z,0
2017-05-16T00:20:39.331Z,0
2017-05-16T00:21:19.898Z,0
2017-05-16T00:22:00.486Z,0
2017-05-16T00:22:41.097Z,0
2017-05-16T00:23:21.677Z,0
2017-05-16T00:24:02.243Z,0
2017-05-16T00:24:42.816Z,0
2017-05-16T00:25:23.395Z,0
2017-05-16T00:26:03.959Z,0
2017-05-16T00:26:44.543Z,0
2017-05-16T00:27:25.132Z,0
2017-05-16T00:28:05.724Z,0
2017-05-16T00:28:46.290Z,0
2017-05-16T00:29:26.911Z,0
2017-05-16T00:30:07.491Z,0
2017-05-16T00:30:48.059Z,0
2017-05-16T00:31:28.676Z,0
2017-05-16T00:32:09.225Z,0
2017-05-16T00:32:49.819Z,0
2017-05-16T00:33:30.393Z,0
2017-05-16T00:34:10.976Z,0
2017-05-16T00:34:51.594Z,0
2017-05-16T00:35:32.141Z,0
2017-05-16T00:36:12.714Z,0
2017-05-16T00:36:53.282Z,0
2017-05-16T00:37:33.869Z,0
2017-05-16T00:38:14.543Z,0
2017-05-16T00:38:55.067Z,0
2017-05-16T00:39:35.677Z,0
2017-05-16T00:40:16.251Z,0
2017-05-16T00:40:56.834Z,0
2017-05-16T00:41:37.406Z,0
2017-05-16T00:42:17.991Z,0
2017-05-16T00:42:58.594Z,0
2017-05-16T00:43:39.163Z,0
2017-05-16T00:44:19.760Z,0
2017-05-16T00:45:00.345Z,0
2017-05-16T00:45:40.919Z,0
2017-05-16T00:46:21.509Z,0
2017-05-16T00:47:02.078Z,0
2017-05-16T00:47:42.661Z,0
2017-05-16T00:48:23.247Z,0
2017-05-16T00:49:03.816Z,0
2017-05-16T00:49:44.398Z,0
2017-05-16T00:50:24.978Z,0
2017-05-16T00:51:05.549Z,0
2017-05-16T00:51:46.123Z,0
2017-05-16T00:52:26.739Z,0
2017-05-16T00:53:07.312Z,0
2017-05-16T00:53:47.876Z,0
2017-05-16T00:54:28.464Z,0
2017-05-16T00:55:09.055Z,0
2017-05-16T00:55:49.654Z,0
2017-05-16T00:56:30.234Z,0
2017-05-16T00:57:10.829Z,0
2017-05-16T00:57:51.418Z,0
2017-05-16T00:58:32.047Z,0
2017-05-16T00:59:13.521Z,0
2017-05-16T00:59:54.113Z,0
2017-05-16T01:00:34.709Z,0
2017-05-16T01:01:15.307Z,0
2017-05-16T01:01:55.879Z,0
2017-05-16T01:02:36.471Z,0
2017-05-16T01:03:17.095Z,0
2017-05-16T01:03:57.642Z,0
2017-05-16T01:04:38.211Z,0
2017-05-16T01:05:18.817Z,0
2017-05-16T01:05:59.387Z,0
2017-05-16T01:06:39.984Z,0
2017-05-16T01:07:20.578Z,0
2017-05-16T01:08:01.171Z,0
2017-05-16T01:08:41.757Z,0
2017-05-16T01:09:22.309Z,0
2017-05-16T01:10:02.882Z,0
2017-05-16T01:10:43.451Z,0
2017-05-16T01:11:24.037Z,0
2017-05-16T01:12:04.633Z,0
2017-05-16T01:12:45.213Z,0
2017-05-16T01:13:25.784Z,0
2017-05-16T01:14:06.350Z,0
2017-05-16T01:14:46.924Z,0
2017-05-16T01:15:27.494Z,0
2017-05-16T01:16:08.079Z,0
2017-05-16T01:16:48.661Z,0
2017-05-16T01:17:29.271Z,0
2017-05-16T01:18:09.840Z,0
2017-05-16T01:18:50.411Z,0
2017-05-16T01:19:31.043Z,0
2017-05-16T01:20:11.632Z,0
2017-05-16T01:20:52.200Z,0
2017-05-16T01:21:32.778Z,0
2017-05-16T01:22:13.410Z,0
2017-05-16T01:22:53.985Z,0
2017-05-16T01:23:34.572Z,0
2017-05-16T01:24:15.155Z,0
2017-05-16T01:24:55.725Z,0
2017-05-16T01:25:36.334Z,0
2017-05-16T01:26:16.931Z,0
2017-05-16T01:26:57.463Z,0
2017-05-16T01:27:38.040Z,0
2017-05-16T01:28:18.660Z,0
2017-05-16T01:28:59.206Z,0
2017-05-16T01:29:39.777Z,0
2017-05-16T01:30:20.385Z,0
2017-05-16T01:31:00.965Z,0
2017-05-16T01:31:41.533Z,0
2017-05-16T01:32:22.111Z,0
2017-05-16T01:33:02.696Z,0
2017-05-16T01:33:43.281Z,0
2017-05-16T01:34:23.856Z,0
2017-05-16T01:35:04.424Z,0
2017-05-16T01:35:45.000Z,0
2017-05-16T01:36:25.609Z,0
2017-05-16T01:37:06.190Z,0
2017-05-16T01:37:46.765Z,0
2017-05-16T01:38:27.332Z,0
2017-05-16T01:39:07.896Z,0
2017-05-16T01:39:48.467Z,0
2017-05-16T01:40:29.046Z,0
2017-05-16T01:41:09.615Z,0
2017-05-16T01:41:50.206Z,0
2017-05-16T01:42:30.817Z,0
2017-05-16T01:43:11.452Z,0
2017-05-16T01:43:52.024Z,0
2017-05-16T01:44:32.624Z,0
2017-05-16T01:45:13.212Z,0
2017-05-16T01:45:53.780Z,0
2017-05-16T01:46:34.365Z,0
2017-05-16T01:47:14.957Z,0
2017-05-16T01:47:55.544Z,0
2017-05-16T01:48:42.718Z,0
2017-05-16T01:49:23.269Z,0
2017-05-16T01:50:03.795Z,0
2017-05-16T01:50:44.334Z,0
2017-05-16T01:51:24.884Z,0
2017-05-16T01:52:05.530Z,0
2017-05-16T01:52:46.079Z,0
2017-05-16T01:53:26.632Z,0
2017-05-16T01:54:07.195Z,0
2017-05-16T01:54:47.740Z,0
2017-05-16T01:55:28.294Z,0
2017-05-16T01:56:08.840Z,0
2017-05-16T01:56:49.392Z,0
2017-05-16T01:57:29.925Z,0
2017-05-16T01:58:10.459Z,0
2017-05-16T01:58:50.998Z,0
2017-05-16T01:59:31.531Z,0
2017-05-16T02:00:12.109Z,0
2017-05-16T02:00:52.599Z,0
2017-05-16T02:01:33.145Z,0
2017-05-16T02:02:13.698Z,0
2017-05-16T02:02:54.253Z,0
2017-05-16T02:03:34.801Z,0
2017-05-16T02:04:15.347Z,0
2017-05-16T02:04:55.894Z,0
2017-05-16T02:05:36.422Z,0
2017-05-16T02:06:16.960Z,0
2017-05-16T02:06:57.497Z,0
2017-05-16T02:07:38.035Z,0
2017-05-16T02:08:18.569Z,0
2017-05-16T02:08:59.103Z,0
2017-05-16T02:09:39.643Z,0
2017-05-16T02:10:20.203Z,0
2017-05-16T02:11:00.754Z,0
2017-05-16T02:11:41.299Z,0
2017-05-16T02:12:21.849Z,0
2017-05-16T02:13:02.402Z,0
2017-05-16T02:13:42.948Z,0
2017-05-16T02:14:23.509Z,0
2017-05-16T02:15:04.062Z,0
2017-05-16T02:15:44.611Z,0
2017-05-16T02:16:25.160Z,0
2017-05-16T02:17:05.710Z,0
2017-05-16T02:17:46.257Z,0
2017-05-16T02:18:26.799Z,0
2017-05-16T02:19:07.348Z,0
2017-05-16T02:19:47.904Z,0
2017-05-16T02:20:28.441Z,0
2017-05-16T02:21:08.974Z,0
2017-05-16T02:21:49.520Z,0
2017-05-16T02:22:30.106Z,0
2017-05-16T02:23:10.585Z,0
2017-05-16T02:23:51.134Z,0
2017-05-16T02:24:31.700Z,0
2017-05-16T02:25:12.230Z,0
2017-05-16T02:25:52.777Z,0
2017-05-16T02:26:33.321Z,0
2017-05-16T02:27:13.846Z,0
2017-05-16T02:27:54.386Z,0
2017-05-16T02:28:34.919Z,0
2017-05-16T02:29:15.449Z,0
2017-05-16T02:29:56.039Z,0
2017-05-16T02:30:36.524Z,0
2017-05-16T02:31:17.063Z,0
2017-05-16T02:31:57.605Z,0
2017-05-16T02:32:38.151Z,0
2017-05-16T02:33:18.676Z,0
2017-05-16T02:33:59.209Z,0
2017-05-16T02:34:39.734Z,0
2017-05-16T02:35:20.271Z,0
2017-05-16T02:36:00.803Z,0
2017-05-16T02:36:41.346Z,0
2017-05-16T02:37:21.869Z,0
2017-05-16T02:38:02.401Z,0
2017-05-16T02:38:42.933Z,0
2017-05-16T02:39:23.489Z,0
2017-05-16T02:40:04.064Z,0
2017-05-16T02:40:44.556Z,0
2017-05-16T02:41:25.102Z,0
2017-05-16T02:42:05.657Z,0
2017-05-16T02:42:46.168Z,0
2017-05-16T02:43:26.699Z,0
2017-05-16T02:44:07.243Z,0
2017-05-16T02:44:47.790Z,0
2017-05-16T02:45:28.310Z,0
2017-05-16T02:46:08.848Z,0
2017-05-16T02:46:49.382Z,0
2017-05-16T02:47:29.935Z,0
2017-05-16T02:48:10.514Z,0
2017-05-16T02:48:51.062Z,0
2017-05-16T02:49:31.595Z,0
2017-05-16T02:50:12.125Z,0
2017-05-16T02:50:52.658Z,0
2017-05-16T02:51:33.195Z,0
2017-05-16T02:52:13.742Z,0
2017-05-16T02:52:54.286Z,0
2017-05-16T02:53:34.823Z,0
2017-05-16T02:54:15.364Z,0
2017-05-16T02:54:55.897Z,0
2017-05-16T02:55:36.422Z,0
2017-05-16T02:56:16.973Z,0
2017-05-16T02:56:57.505Z,0
2017-05-16T02:57:38.023Z,0
2017-05-16T02:58:18.564Z,0
2017-05-16T02:58:59.107Z,0
2017-05-16T02:59:39.680Z,0
2017-05-16T03:00:20.283Z,0
2017-05-16T03:01:00.777Z,0
2017-05-16T03:01:41.313Z,0
2017-05-16T03:02:21.847Z,0
2017-05-16T03:03:02.392Z,0
2017-05-16T03:03:42.954Z,0
2017-05-16T03:04:23.501Z,0
2017-05-16T03:05:04.044Z,0
2017-05-16T03:05:44.591Z,0
2017-05-16T03:06:25.132Z,0
2017-05-16T03:07:05.673Z,0
2017-05-16T03:07:46.215Z,0
2017-05-16T03:08:26.752Z,0
2017-05-16T03:09:07.296Z,0
2017-05-16T03:09:47.836Z,0
2017-05-16T03:10:28.377Z,0
2017-05-16T03:11:08.925Z,0
2017-05-16T03:11:49.458Z,0
2017-05-16T03:12:29.985Z,0
2017-05-16T03:13:10.518Z,0
2017-05-16T03:13:51.070Z,4
2017-05-16T03:14:31.600Z,4
2017-05-16T03:15:12.143Z,4
2017-05-16T03:15:52.666Z,4
2017-05-16T03:16:33.204Z,0
2017-05-16T03:17:13.750Z,4
2017-05-16T03:17:54.300Z,4
2017-05-16T03:18:34.836Z,4
2017-05-16T03:19:15.373Z,8
2017-05-16T03:19:55.947Z,4
2017-05-16T03:20:36.495Z,4
2017-05-16T03:21:17.042Z,8
2017-05-16T03:21:57.584Z,8
2017-05-16T03:22:38.123Z,8
2017-05-16T03:23:18.713Z,8
2017-05-16T03:23:59.250Z,12
2017-05-16T03:24:39.791Z,8
2017-05-16T03:25:20.350Z,12
2017-05-16T03:26:00.875Z,12
2017-05-16T03:26:41.419Z,12
2017-05-16T03:27:21.988Z,16
2017-05-16T03:28:02.560Z,12
2017-05-16T03:28:43.121Z,16
2017-05-16T03:29:23.643Z,16
2017-05-16T03:30:04.172Z,20
2017-05-16T03:30:44.749Z,24
2017-05-16T03:31:25.282Z,24
2017-05-16T03:32:05.822Z,24
2017-05-16T03:32:46.353Z,28
2017-05-16T03:33:26.882Z,32
2017-05-16T03:34:07.417Z,36
2017-05-16T03:34:47.948Z,40
2017-05-16T03:35:28.476Z,44
2017-05-16T03:36:09.008Z,44
2017-05-16T03:36:49.535Z,48
2017-05-16T03:37:30.071Z,52
2017-05-16T03:38:10.599Z,56
2017-05-16T03:38:51.135Z,56
2017-05-16T03:39:31.662Z,60
2017-05-16T03:40:12.270Z,60
2017-05-16T03:40:52.805Z,64
2017-05-16T03:41:33.351Z,64
2017-05-16T03:42:13.898Z,72
2017-05-16T03:42:54.458Z,72
2017-05-16T03:43:35.003Z,76
2017-05-16T03:44:15.550Z,76
2017-05-16T03:44:56.091Z,80
2017-05-16T03:45:36.625Z,80
2017-05-16T03:46:17.174Z,84
2017-05-16T03:46:57.745Z,88
2017-05-16T03:47:38.272Z,92
2017-05-16T03:48:18.810Z,96
2017-05-16T03:48:59.386Z,100
2017-05-16T03:49:39.863Z,104
2017-05-16T03:50:20.424Z,104
2017-05-16T03:51:01.011Z,108
2017-05-16T03:51:41.571Z,108
2017-05-16T03:52:22.095Z,112
2017-05-16T03:53:02.647Z,116
2017-05-16T03:53:43.191Z,116
2017-05-16T03:54:23.723Z,116
2017-05-16T03:55:04.265Z,120
2017-05-16T03:55:44.812Z,120
2017-05-16T03:56:25.368Z,128
2017-05-16T03:57:05.956Z,128
2017-05-16T03:57:46.472Z,132
2017-05-16T03:58:27.036Z,136
2017-05-16T03:59:07.576Z,140
2017-05-16T03:59:48.123Z,148
2017-05-16T04:00:28.712Z,152
2017-05-16T04:01:09.245Z,156
2017-05-16T04:01:49.779Z,160
2017-05-16T04:02:30.345Z,168
2017-05-16T04:03:10.877Z,172
2017-05-16T04:03:51.428Z,176
2017-05-16T04:04:31.985Z,184
2017-05-16T04:05:12.559Z,188
2017-05-16T04:05:53.088Z,192
2017-05-16T04:06:33.631Z,200
2017-05-16T04:07:14.181Z,208
2017-05-16T04:07:54.728Z,216
2017-05-16T04:08:35.267Z,224
2017-05-16T04:09:15.868Z,236
2017-05-16T04:09:56.381Z,244
2017-05-16T04:10:36.900Z,256
2017-05-16T04:11:17.439Z,260
2017-05-16T04:11:57.989Z,268
2017-05-16T04:12:38.550Z,272
2017-05-16T04:13:19.080Z,280
2017-05-16T04:13:59.677Z,284
2017-05-16T04:14:40.228Z,284
2017-05-16T04:15:20.782Z,292
2017-05-16T04:16:01.310Z,296
2017-05-16T04:16:41.837Z,300
2017-05-16T04:17:22.388Z,300
2017-05-16T04:18:02.924Z,304
2017-05-16T04:18:43.472Z,300
2017-05-16T04:19:24.004Z,304
2017-05-16T04:20:04.542Z,304
2017-05-16T04:20:45.150Z,304
2017-05-16T04:21:25.653Z,308
2017-05-16T04:22:06.202Z,312
2017-05-16T04:22:46.743Z,320
2017-05-16T04:23:27.312Z,332
2017-05-16T04:24:07.875Z,344
2017-05-16T04:24:48.403Z,352
2017-05-16T04:25:28.946Z,360
2017-05-16T04:26:09.509Z,376
2017-05-16T04:26:50.062Z,384
2017-05-16T04:27:30.617Z,392
2017-05-16T04:28:11.160Z,404
2017-05-16T04:28:51.776Z,412
2017-05-16T04:29:33.290Z,424
2017-05-16T04:30:13.829Z,436
2017-05-16T04:30:54.429Z,444
2017-05-16T04:31:34.966Z,456
2017-05-16T04:32:15.528Z,472
2017-05-16T04:32:56.068Z,492
2017-05-16T04:33:36.594Z,512
2017-05-16T04:34:17.145Z,532
2017-05-16T04:34:57.694Z,548
2017-05-16T04:35:38.233Z,572
2017-05-16T04:36:18.810Z,584
2017-05-16T04:36:59.360Z,604
2017-05-16T04:37:39.936Z,620
2017-05-16T04:38:20.512Z,636
2017-05-16T04:39:01.041Z,656
2017-05-16T04:39:41.599Z,668
2017-05-16T04:40:22.174Z,684
2017-05-16T04:41:02.715Z,696
2017-05-16T04:41:43.355Z,712
2017-05-16T04:42:23.876Z,732
2017-05-16T04:43:04.437Z,760
2017-05-16T04:43:44.978Z,780
2017-05-16T04:44:25.510Z,796
2017-05-16T04:45:06.057Z,804
2017-05-16T04:45:46.606Z,804
2017-05-16T04:46:27.157Z,804
2017-05-16T04:47:07.715Z,804
2017-05-16T04:47:48.299Z,808
2017-05-16T04:48:28.861Z,824
2017-05-16T04:49:09.389Z,848
2017-05-16T04:49:49.944Z,884
2017-05-16T04:50:30.495Z,908
2017-05-16T04:51:11.028Z,928
2017-05-16T04:51:51.570Z,952
2017-05-16T04:52:32.120Z,984
2017-05-16T04:53:12.672Z,1004
2017-05-16T04:53:53.222Z,1016
2017-05-16T04:54:33.767Z,1028
2017-05-16T04:55:14.327Z,1040
2017-05-16T04:55:54.878Z,1040
2017-05-16T04:56:35.422Z,1048
2017-05-16T04:57:15.952Z,1056
2017-05-16T04:57:56.494Z,1064
2017-05-16T04:58:37.041Z,1064
2017-05-16T04:59:17.590Z,1068
2017-05-16T04:59:58.130Z,1072
2017-05-16T05:00:38.707Z,1084
2017-05-16T05:01:19.205Z,1092
2017-05-16T05:01:59.759Z,1112
2017-05-16T05:02:40.285Z,1132
2017-05-16T05:03:20.833Z,1148
2017-05-16T05:04:01.381Z,1156
2017-05-16T05:04:41.920Z,1176
2017-05-16T05:05:22.482Z,1216
2017-05-16T05:06:03.027Z,1268
2017-05-16T05:06:43.585Z,1304
2017-05-16T05:07:24.139Z,1332
2017-05-16T05:08:04.687Z,1356
2017-05-16T05:08:45.238Z,1372
2017-05-16T05:09:25.779Z,1364
2017-05-16T05:10:06.368Z,1368
2017-05-16T05:10:46.882Z,1376
2017-05-16T05:11:27.427Z,1416
2017-05-16T05:12:07.978Z,1460
2017-05-16T05:12:48.546Z,1520
2017-05-16T05:13:29.094Z,1572
2017-05-16T05:14:09.640Z,1664
2017-05-16T05:14:50.204Z,1744
2017-05-16T05:15:30.747Z,1824
2017-05-16T05:16:11.298Z,1908
2017-05-16T05:16:51.847Z,2028
2017-05-16T05:17:32.402Z,2184
2017-05-16T05:18:12.950Z,2344
2017-05-16T05:18:53.505Z,2472
2017-05-16T05:19:34.049Z,2572
2017-05-16T05:20:14.664Z,2700
2017-05-16T05:20:55.175Z,2832
2017-05-16T05:21:35.720Z,2920
2017-05-16T05:22:16.256Z,2964
2017-05-16T05:22:56.803Z,3004
2017-05-16T05:23:37.349Z,3052
2017-05-16T05:24:17.962Z,3024
2017-05-16T05:24:58.520Z,3084
2017-05-16T05:25:39.076Z,3100
2017-05-16T05:26:19.625Z,3092
2017-05-16T05:27:00.193Z,3136
2017-05-16T05:27:40.774Z,3124
2017-05-16T05:28:21.313Z,3108
2017-05-16T05:29:01.870Z,3096
2017-05-16T05:29:42.415Z,3108
2017-05-16T05:30:22.965Z,3108
2017-05-16T05:31:03.523Z,3112
2017-05-16T05:31:44.066Z,3072
2017-05-16T05:32:24.629Z,3016
2017-05-16T05:33:05.169Z,2920
2017-05-16T05:33:45.726Z,2844
2017-05-16T05:34:26.266Z,2744
2017-05-16T05:35:06.839Z,2676
2017-05-16T05:35:47.362Z,2616
2017-05-16T05:36:27.929Z,2536
2017-05-16T05:37:08.478Z,2468
2017-05-16T05:37:49.022Z,2416
2017-05-16T05:38:29.617Z,2336
2017-05-16T05:39:10.177Z,2256
2017-05-16T05:39:50.786Z,2232
2017-05-16T05:40:31.335Z,2200
2017-05-16T05:41:11.979Z,2216
2017-05-16T05:41:52.543Z,2288
2017-05-16T05:42:33.079Z,2368
2017-05-16T05:43:13.635Z,2432
2017-05-16T05:43:54.195Z,2472
2017-05-16T05:44:34.739Z,2536
2017-05-16T05:45:15.290Z,2656
2017-05-16T05:45:55.853Z,2756
2017-05-16T05:46:36.399Z,2816
2017-05-16T05:47:16.948Z,2824
2017-05-16T05:47:57.492Z,2912
2017-05-16T05:48:38.052Z,2976
2017-05-16T05:49:18.590Z,3000
2017-05-16T05:49:59.128Z,2996
2017-05-16T05:50:39.666Z,3032
2017-05-16T05:51:20.165Z,3140
2017-05-16T05:52:00.705Z,3228
2017-05-16T05:52:41.238Z,3260
2017-05-16T05:53:21.894Z,3296
2017-05-16T05:54:02.437Z,3316
2017-05-16T05:54:43.189Z,3336
2017-05-16T05:55:23.986Z,3352
2017-05-16T05:56:04.526Z,3380
2017-05-16T05:56:45.047Z,3396
2017-05-16T05:57:25.627Z,3416
2017-05-16T05:58:06.176Z,3428
2017-05-16T05:58:46.804Z,3460
2017-05-16T05:59:27.318Z,3532
2017-05-16T06:00:07.892Z,3584
2017-05-16T06:00:48.367Z,3620
2017-05-16T06:01:28.981Z,3668
2017-05-16T06:02:09.534Z,3708
2017-05-16T06:02:50.082Z,3756
2017-05-16T06:03:30.614Z,3808
2017-05-16T06:04:11.169Z,3844
2017-05-16T06:04:51.689Z,3892
2017-05-16T06:05:32.232Z,3932
2017-05-16T06:06:12.781Z,3956
2017-05-16T06:06:53.359Z,3972
2017-05-16T06:07:33.963Z,3972
2017-05-16T06:08:14.537Z,3952
2017-05-16T06:08:55.176Z,3900
2017-05-16T06:09:35.727Z,3844
2017-05-16T06:10:16.282Z,3768
2017-05-16T06:10:56.820Z,3692
2017-05-16T06:11:37.345Z,3632
2017-05-16T06:12:17.915Z,3596
2017-05-16T06:12:58.800Z,3576
2017-05-16T06:13:39.932Z,3572
2017-05-16T06:14:20.546Z,3584
2017-05-16T06:15:01.137Z,3584
2017-05-16T06:15:41.670Z,3572
2017-05-16T06:16:22.237Z,3576
2017-05-16T06:17:02.786Z,3564
2017-05-16T06:17:43.334Z,3560
2017-05-16T06:18:23.865Z,3540
2017-05-16T06:19:04.433Z,3500
2017-05-16T06:21:18.718Z,3396
2017-05-16T06:21:59.296Z,3372
2017-05-16T06:22:39.827Z,3368
2017-05-16T06:23:20.376Z,3376
2017-05-16T06:24:00.921Z,3384
2017-05-16T06:24:41.473Z,3396
2017-05-16T06:25:22.050Z,3424
2017-05-16T06:26:02.650Z,3472
2017-05-16T06:26:43.150Z,3528
2017-05-16T06:27:24.576Z,3588
2017-05-16T06:28:05.090Z,3632
2017-05-16T06:28:45.630Z,3696
2017-05-16T06:29:26.178Z,3752
2017-05-16T06:30:06.757Z,3804
2017-05-16T06:30:47.291Z,3836
2017-05-16T06:31:27.832Z,3880
2017-05-16T06:32:08.353Z,3936
2017-05-16T06:32:48.929Z,3996
2017-05-16T06:33:29.450Z,4016
2017-05-16T06:34:10.012Z,4064
2017-05-16T06:34:50.555Z,4116
2017-05-16T06:35:31.128Z,4180
2017-05-16T06:36:11.676Z,4264
2017-05-16T06:36:52.224Z,4356
2017-05-16T06:37:32.806Z,4464
2017-05-16T06:38:13.416Z,4568
2017-05-16T06:38:53.904Z,4660
2017-05-16T06:39:34.462Z,4752
2017-05-16T06:40:14.993Z,4836
2017-05-16T06:40:55.516Z,4928
2017-05-16T06:41:36.053Z,5024
2017-05-16T06:42:16.598Z,5120
2017-05-16T06:42:57.146Z,5228
2017-05-16T06:43:37.694Z,5336
2017-05-16T06:44:18.235Z,5432
2017-05-16T06:44:58.794Z,5500
2017-05-16T06:45:39.336Z,5536
2017-05-16T06:46:19.878Z,5548
2017-05-16T06:47:00.440Z,5516
2017-05-16T06:47:41.008Z,5520
2017-05-16T06:48:21.513Z,5552
2017-05-16T06:49:02.050Z,5616
2017-05-16T06:49:42.595Z,5708
2017-05-16T06:50:23.137Z,5780
2017-05-16T06:51:03.689Z,5824
2017-05-16T06:51:44.217Z,5868
2017-05-16T06:52:24.783Z,5880
2017-05-16T06:53:05.299Z,5864
2017-05-16T06:53:45.860Z,5840
2017-05-16T06:54:26.420Z,5812
2017-05-16T06:55:06.960Z,5824
2017-05-16T06:55:47.507Z,5836
2017-05-16T06:56:28.060Z,5852
2017-05-16T06:57:08.608Z,5872
2017-05-16T06:57:49.162Z,5908
2017-05-16T06:58:29.712Z,5928
2017-05-16T06:59:10.261Z,5964
2017-05-16T06:59:50.804Z,6004
2017-05-16T07:00:31.347Z,6020
2017-05-16T07:01:11.877Z,6060
2017-05-16T07:01:52.494Z,6124
2017-05-16T07:02:33.019Z,6220
2017-05-16T07:03:13.560Z,6328
2017-05-16T07:03:54.110Z,6460
2017-05-16T07:04:34.662Z,6592
2017-05-16T07:05:15.212Z,6752
2017-05-16T07:05:55.763Z,6852
2017-05-16T07:06:36.317Z,6944
2017-05-16T07:07:16.849Z,7088
2017-05-16T07:07:57.388Z,7232
2017-05-16T07:08:37.937Z,7356
2017-05-16T07:09:18.473Z,7496
2017-05-16T07:09:59.024Z,7668
2017-05-16T07:10:39.579Z,7732
2017-05-16T07:11:20.106Z,7796
2017-05-16T07:12:00.644Z,7860
2017-05-16T07:12:41.224Z,7932
2017-05-16T07:13:21.734Z,7988
2017-05-16T07:14:02.270Z,8048
2017-05-16T07:14:42.820Z,8144
2017-05-16T07:15:23.371Z,8264
2017-05-16T07:16:03.905Z,8388
2017-05-16T07:16:44.462Z,8520
2017-05-16T07:17:24.991Z,8660
2017-05-16T07:18:05.514Z,8792
2017-05-16T07:18:46.063Z,8876
2017-05-16T07:19:26.626Z,8976
2017-05-16T07:20:07.166Z,9056
2017-05-16T07:20:47.714Z,9092
2017-05-16T07:21:28.256Z,9100
2017-05-16T07:22:08.802Z,9092
2017-05-16T07:22:49.365Z,9060
2017-05-16T07:23:29.962Z,9056
2017-05-16T07:24:10.495Z,9012
2017-05-16T07:24:51.032Z,8964
2017-05-16T07:25:31.576Z,8988
2017-05-16T07:26:12.118Z,9080
2017-05-16T07:26:52.677Z,9152
2017-05-16T07:27:33.185Z,9284
2017-05-16T07:28:13.773Z,9376
2017-05-16T07:28:54.315Z,9444
2017-05-16T07:29:34.861Z,9532
2017-05-16T07:30:15.424Z,9712
2017-05-16T07:30:55.985Z,9964
2017-05-16T07:31:36.522Z,10040
2017-05-16T07:32:17.065Z,10064
2017-05-16T07:32:57.622Z,10080
2017-05-16T07:33:38.176Z,10128
2017-05-16T07:34:18.724Z,10108
2017-05-16T07:34:59.288Z,10136
2017-05-16T07:35:39.828Z,10108
2017-05-16T07:36:20.375Z,10104
2017-05-16T07:37:00.928Z,10200
2017-05-16T07:37:41.463Z,10232
2017-05-16T07:38:22.000Z,9920
2017-05-16T07:39:02.564Z,9764
2017-05-16T07:39:43.104Z,9704
2017-05-16T07:40:23.653Z,9612
2017-05-16T07:41:04.187Z,9524
2017-05-16T07:41:44.748Z,9492
2017-05-16T07:42:25.327Z,9476
2017-05-16T07:43:05.922Z,9700
2017-05-16T07:43:46.465Z,9672
2017-05-16T07:44:26.999Z,9712
2017-05-16T07:45:07.545Z,9748
2017-05-16T07:45:48.085Z,9800
2017-05-16T07:46:28.619Z,9840
2017-05-16T07:47:09.164Z,9960
2017-05-16T07:47:49.740Z,10064
2017-05-16T07:48:30.287Z,10216
2017-05-16T07:49:10.822Z,10296
2017-05-16T07:49:51.384Z,10520
2017-05-16T07:50:31.931Z,10868
2017-05-16T07:51:12.485Z,10924
2017-05-16T07:51:53.043Z,10956
2017-05-16T07:52:33.598Z,11044
2017-05-16T07:53:14.151Z,11016
2017-05-16T07:53:54.712Z,11100
2017-05-16T07:54:35.263Z,11240
2017-05-16T07:55:15.812Z,11416
2017-05-16T07:55:56.462Z,11672
2017-05-16T07:56:37.011Z,12000
2017-05-16T07:57:17.560Z,12416
2017-05-16T07:57:58.109Z,12804
2017-05-16T07:58:38.659Z,13000
2017-05-16T07:59:19.199Z,13064
2017-05-16T07:59:59.733Z,13316
2017-05-16T08:00:40.281Z,13764
2017-05-16T08:01:20.804Z,14276
2017-05-16T08:02:01.366Z,14560
2017-05-16T08:02:41.918Z,15776
2017-05-16T08:03:22.442Z,17408
2017-05-16T08:04:02.985Z,19584
2017-05-16T08:04:43.524Z,20384
2017-05-16T08:05:24.067Z,20096
2017-05-16T08:06:04.622Z,21280
2017-05-16T08:06:45.172Z,21600
2017-05-16T08:07:25.723Z,29984
2017-05-16T08:08:06.275Z,32096
2017-05-16T08:08:46.812Z,20608
2017-05-16T08:09:27.375Z,24032
2017-05-16T08:10:07.924Z,21760
2017-05-16T08:10:48.477Z,21248
2017-05-16T08:11:29.023Z,24704
2017-05-16T08:12:09.567Z,28032
2017-05-16T08:12:50.196Z,26272
2017-05-16T08:13:30.691Z,24640
2017-05-16T08:14:11.226Z,23168
2017-05-16T08:14:51.762Z,18688
2017-05-16T08:15:32.306Z,19424
2017-05-16T08:16:12.857Z,18496
2017-05-16T08:16:53.402Z,19840
2017-05-16T08:17:33.947Z,20448
2017-05-16T08:18:14.468Z,27680
2017-05-16T08:18:54.995Z,22144
2017-05-16T08:19:35.538Z,30816
2017-05-16T08:20:16.073Z,26976
2017-05-16T08:20:56.606Z,33120
2017-05-16T08:21:37.157Z,31328
2017-05-16T08:22:17.708Z,32768
2017-05-16T08:22:58.226Z,35328
2017-05-16T08:23:38.817Z,47840
2017-05-16T08:24:19.318Z,38880
2017-05-16T08:24:59.867Z,35328
2017-05-16T08:25:40.417Z,30752
2017-05-16T08:26:20.961Z,47200
2017-05-16T08:27:01.503Z,36608
2017-05-16T08:27:42.052Z,26976
2017-05-16T08:28:22.588Z,26816
2017-05-16T08:29:03.143Z,24288
2017-05-16T08:29:43.688Z,26496
2017-05-16T08:30:24.250Z,34912
2017-05-16T08:31:04.798Z,27776
2017-05-16T08:31:45.344Z,24640
2017-05-16T08:32:25.888Z,22368
2017-05-16T08:33:06.434Z,24000
2017-05-16T08:33:46.993Z,28480
2017-05-16T08:34:27.555Z,29280
2017-05-16T08:35:08.107Z,37408
2017-05-16T08:35:48.672Z,30240
2017-05-16T08:36:29.208Z,58496
2017-05-16T08:37:09.765Z,65408
2017-05-16T08:37:50.347Z,54016
2017-05-16T08:38:30.926Z,43936
2017-05-16T08:39:11.477Z,40096
2017-05-16T08:39:52.050Z,31552
2017-05-16T08:40:32.601Z,27360
2017-05-16T08:41:13.147Z,29056
2017-05-16T08:41:53.731Z,31296
2017-05-16T08:42:34.296Z,29280
2017-05-16T08:43:14.885Z,31232
2017-05-16T08:43:55.430Z,29696
2017-05-16T08:44:35.999Z,25152
2017-05-16T08:45:16.534Z,28192
2017-05-16T08:45:57.069Z,30528
2017-05-16T08:46:37.625Z,37344
2017-05-16T08:47:18.146Z,38560
2017-05-16T08:47:58.684Z,35328
2017-05-16T08:48:39.235Z,49504
2017-05-16T08:49:19.782Z,54336
2017-05-16T08:50:00.360Z,60640
2017-05-16T08:50:40.874Z,48000
2017-05-16T08:51:21.420Z,35296
2017-05-16T08:52:02.011Z,34624
2017-05-16T08:52:42.563Z,54880
2017-05-16T08:53:23.122Z,55424
2017-05-16T08:54:03.660Z,72128
2017-05-16T08:54:44.200Z,42880
2017-05-16T08:55:24.752Z,41600
2017-05-16T08:56:05.299Z,60352
2017-05-16T08:56:45.854Z,50592
2017-05-16T08:57:26.399Z,83392
2017-05-16T08:58:06.969Z,73760
2017-05-16T08:58:47.501Z,60992
2017-05-16T08:59:28.044Z,45376
2017-05-16T09:00:08.581Z,47744
2017-05-16T09:00:49.125Z,46560
2017-05-16T09:01:29.676Z,55744
2017-05-16T09:02:10.228Z,50656
2017-05-16T09:02:50.799Z,43264
2017-05-16T09:03:31.327Z,51072
2017-05-16T09:04:11.883Z,33664
2017-05-16T09:04:52.432Z,37632
2017-05-16T09:05:32.990Z,38720
2017-05-16T09:06:13.535Z,37696
2017-05-16T09:06:54.084Z,30880
2017-05-16T09:07:34.613Z,31040
2017-05-16T09:08:15.145Z,30688
2017-05-16T09:08:55.666Z,54080
2017-05-16T09:09:36.215Z,43232
2017-05-16T09:10:16.760Z,33088
2017-05-16T09:10:57.311Z,38976
2017-05-16T09:11:37.866Z,35200
2017-05-16T09:12:18.411Z,36672
2017-05-16T09:12:58.954Z,43168
2017-05-16T09:13:39.504Z,36832
2017-05-16T09:14:20.053Z,32768
2017-05-16T09:15:00.598Z,28640
2017-05-16T09:15:41.156Z,27712
2017-05-16T09:16:21.706Z,27552
2017-05-16T09:17:02.250Z,27712
2017-05-16T09:17:42.782Z,27136
2017-05-16T09:18:23.407Z,26944
2017-05-16T09:19:03.893Z,26592
2017-05-16T09:19:44.474Z,26208
2017-05-16T09:20:25.035Z,26816
2017-05-16T09:21:05.584Z,26784
2017-05-16T09:21:46.182Z,28256
2017-05-16T09:22:26.727Z,31360